sensor_id;sensor_type;location;lat;lon;timestamp;pressure;altitude;pressure_sealevel;temperature;humidity
7662;BME280;30314;48.184;11.510;2022-12-07T00:01:06;95796.66;;;0.66;100.00
7662;BME280;30314;48.184;11.510;2022-12-07T00:03:34;95798.59;;;0.70;100.00
7662;BME280;30314;48.184;11.510;2022-12-07T00:06:04;95875.94;;;1.23;100.00
7662;BME280;30314;48.184;11.510;2022-12-07T00:08:33;95870.03;;;1.27;100.00
7662;BME280;30314;48.184;11.510;2022-12-07T00:11:02;95803.22;;;0.80;100.00
7662;BME280;30314;48.184;11.510;2022-12-07T00:13:32;95737.31;;;0.39;100.00
7662;BME280;30314;48.184;11.510;2022-12-07T00:16:01;95851.28;;;1.02;100.00
7662;BME280;30314;48.184;11.510;2022-12-07T00:18:29;95871.41;;;1.18;100.00
7662;BME280;30314;48.184;11.510;2022-12-07T00:20:59;95850.38;;;0.96;100.00
7662;BME280;30314;48.184;11.510;2022-12-07T00:23:28;95775.88;;;0.54;100.00
7662;BME280;30314;48.184;11.510;2022-12-07T00:26:03;95785.56;;;0.59;100.00
7662;BME280;30314;48.184;11.510;2022-12-07T00:28:32;95865.31;;;1.12;100.00
7662;BME280;30314;48.184;11.510;2022-12-07T00:31:03;95842.91;;;1.00;100.00
7662;BME280;30314;48.184;11.510;2022-12-07T00:33:31;95826.19;;;0.83;100.00
7662;BME280;30314;48.184;11.510;2022-12-07T00:36:00;95723.19;;;0.11;100.00
7662;BME280;30314;48.184;11.510;2022-12-07T00:38:29;95775.06;;;0.53;100.00
7662;BME280;30314;48.184;11.510;2022-12-07T00:40:58;95857.19;;;1.09;100.00
7662;BME280;30314;48.184;11.510;2022-12-07T00:43:27;95864.44;;;1.07;100.00
7662;BME280;30314;48.184;11.510;2022-12-07T00:45:56;95862.72;;;1.01;100.00
7662;BME280;30314;48.184;11.510;2022-12-07T00:48:24;95871.78;;;0.98;100.00
7662;BME280;30314;48.184;11.510;2022-12-07T00:50:52;95753.47;;;0.17;100.00
7662;BME280;30314;48.184;11.510;2022-12-07T00:53:20;95864.88;;;1.04;100.00
7662;BME280;30314;48.184;11.510;2022-12-07T00:55:48;95855.69;;;1.13;100.00
7662;BME280;30314;48.184;11.510;2022-12-07T00:58:16;95818.72;;;0.63;100.00
7662;BME280;30314;48.184;11.510;2022-12-07T01:00:43;95847.00;;;0.83;100.00
7662;BME280;30314;48.184;11.510;2022-12-07T01:03:14;95848.13;;;1.00;100.00
7662;BME280;30314;48.184;11.510;2022-12-07T01:05:49;95851.19;;;0.96;100.00
7662;BME280;30314;48.184;11.510;2022-12-07T01:08:17;95812.06;;;0.67;100.00
7662;BME280;30314;48.184;11.510;2022-12-07T01:10:46;95718.22;;;0.09;100.00
7662;BME280;30314;48.184;11.510;2022-12-07T01:13:14;95856.84;;;1.05;100.00
7662;BME280;30314;48.184;11.510;2022-12-07T01:15:42;95857.97;;;0.97;100.00
7662;BME280;30314;48.184;11.510;2022-12-07T01:18:10;95839.66;;;0.80;100.00
7662;BME280;30314;48.184;11.510;2022-12-07T01:20:40;95858.78;;;0.86;100.00
7662;BME280;30314;48.184;11.510;2022-12-07T01:23:08;95857.84;;;0.92;100.00
7662;BME280;30314;48.184;11.510;2022-12-07T01:25:35;95849.59;;;0.95;100.00
7662;BME280;30314;48.184;11.510;2022-12-07T01:28:03;95821.78;;;0.72;100.00
7662;BME280;30314;48.184;11.510;2022-12-07T01:30:31;95860.59;;;0.97;100.00
7662;BME280;30314;48.184;11.510;2022-12-07T01:32:59;95864.22;;;0.96;100.00
7662;BME280;30314;48.184;11.510;2022-12-07T01:35:27;95856.41;;;0.96;100.00
7662;BME280;30314;48.184;11.510;2022-12-07T01:37:56;95867.84;;;0.95;100.00
7662;BME280;30314;48.184;11.510;2022-12-07T01:40:24;95857.50;;;1.01;100.00
7662;BME280;30314;48.184;11.510;2022-12-07T01:42:51;95826.41;;;0.82;100.00
7662;BME280;30314;48.184;11.510;2022-12-07T01:45:43;95857.06;;;1.04;100.00
7662;BME280;30314;48.184;11.510;2022-12-07T01:48:15;95801.53;;;0.62;100.00
7662;BME280;30314;48.184;11.510;2022-12-07T01:50:45;95816.25;;;0.68;100.00
7662;BME280;30314;48.184;11.510;2022-12-07T01:53:17;95850.03;;;0.92;100.00
7662;BME280;30314;48.184;11.510;2022-12-07T01:55:47;95868.25;;;0.92;100.00
7662;BME280;30314;48.184;11.510;2022-12-07T01:58:17;95851.75;;;0.98;100.00
7662;BME280;30314;48.184;11.510;2022-12-07T02:00:45;95828.47;;;0.80;100.00
7662;BME280;30314;48.184;11.510;2022-12-07T02:03:18;95853.56;;;0.86;100.00
7662;BME280;30314;48.184;11.510;2022-12-07T02:05:48;95852.00;;;0.85;100.00
7662;BME280;30314;48.184;11.510;2022-12-07T02:08:18;95789.78;;;0.48;100.00
7662;BME280;30314;48.184;11.510;2022-12-07T02:10:46;95850.38;;;0.96;100.00
7662;BME280;30314;48.184;11.510;2022-12-07T02:13:17;95843.59;;;1.07;100.00
7662;BME280;30314;48.184;11.510;2022-12-07T02:16:04;95843.72;;;1.00;100.00
7662;BME280;30314;48.184;11.510;2022-12-07T02:18:50;95844.16;;;0.97;100.00
7662;BME280;30314;48.184;11.510;2022-12-07T02:21:30;95833.44;;;0.93;100.00
7662;BME280;30314;48.184;11.510;2022-12-07T02:24:22;95839.88;;;0.91;100.00
7662;BME280;30314;48.184;11.510;2022-12-07T02:27:10;95839.53;;;0.87;100.00
7662;BME280;30314;48.184;11.510;2022-12-07T02:29:49;95833.97;;;0.83;100.00
7662;BME280;30314;48.184;11.510;2022-12-07T02:32:25;95836.84;;;0.82;100.00
7662;BME280;30314;48.184;11.510;2022-12-07T02:34:58;95825.63;;;0.81;100.00
7662;BME280;30314;48.184;11.510;2022-12-07T02:37:35;95835.34;;;0.86;100.00
7662;BME280;30314;48.184;11.510;2022-12-07T02:40:09;95829.81;;;0.82;100.00
7662;BME280;30314;48.184;11.510;2022-12-07T02:42:42;95834.31;;;0.87;100.00
7662;BME280;30314;48.184;11.510;2022-12-07T02:45:15;95827.53;;;0.86;100.00
7662;BME280;30314;48.184;11.510;2022-12-07T02:47:45;95826.53;;;0.87;100.00
7662;BME280;30314;48.184;11.510;2022-12-07T02:50:17;95823.69;;;0.77;100.00
7662;BME280;30314;48.184;11.510;2022-12-07T02:52:45;95834.31;;;0.87;100.00
7662;BME280;30314;48.184;11.510;2022-12-07T02:55:15;95829.22;;;0.92;100.00
7662;BME280;30314;48.184;11.510;2022-12-07T02:57:55;95814.44;;;0.81;100.00
7662;BME280;30314;48.184;11.510;2022-12-07T03:00:31;95829.81;;;0.94;100.00
7662;BME280;30314;48.184;11.510;2022-12-07T03:03:07;95824.38;;;0.84;100.00
7662;BME280;30314;48.184;11.510;2022-12-07T03:05:55;95821.66;;;0.91;100.00
7662;BME280;30314;48.184;11.510;2022-12-07T03:08:33;95825.41;;;0.83;100.00
7662;BME280;30314;48.184;11.510;2022-12-07T03:11:04;95828.47;;;0.80;100.00
7662;BME280;30314;48.184;11.510;2022-12-07T03:13:35;95821.00;;;0.72;100.00
7662;BME280;30314;48.184;11.510;2022-12-07T03:16:11;95821.66;;;0.79;100.00
7662;BME280;30314;48.184;11.510;2022-12-07T03:18:46;95838.88;;;0.80;100.00
7662;BME280;30314;48.184;11.510;2022-12-07T03:21:18;95825.28;;;0.78;100.00
7662;BME280;30314;48.184;11.510;2022-12-07T03:23:50;95834.56;;;0.74;100.00
7662;BME280;30314;48.184;11.510;2022-12-07T03:26:19;95839.78;;;0.74;100.00
7662;BME280;30314;48.184;11.510;2022-12-07T03:28:52;95835.00;;;0.82;100.00
7662;BME280;30314;48.184;11.510;2022-12-07T03:31:26;95820.97;;;0.83;100.00
7662;BME280;30314;48.184;11.510;2022-12-07T03:34:01;95826.41;;;0.82;100.00
7662;BME280;30314;48.184;11.510;2022-12-07T03:36:34;95819.75;;;0.74;100.00
7662;BME280;30314;48.184;11.510;2022-12-07T03:39:11;95821.78;;;0.72;100.00
7662;BME280;30314;48.184;11.510;2022-12-07T03:41:40;95830.47;;;0.78;100.00
7662;BME280;30314;48.184;11.510;2022-12-07T03:44:12;95821.09;;;0.89;100.00
7662;BME280;30314;48.184;11.510;2022-12-07T03:46:44;95819.16;;;0.84;100.00
7662;BME280;30314;48.184;11.510;2022-12-07T03:49:22;95821.09;;;0.77;100.00
7662;BME280;30314;48.184;11.510;2022-12-07T03:51:55;95825.88;;;0.80;100.00
7662;BME280;30314;48.184;11.510;2022-12-07T03:54:29;95819.03;;;0.79;100.00
7662;BME280;30314;48.184;11.510;2022-12-07T03:56:59;95811.69;;;0.76;100.00
7662;BME280;30314;48.184;11.510;2022-12-07T03:59:29;95811.25;;;0.79;100.00
7662;BME280;30314;48.184;11.510;2022-12-07T04:02:03;95810.47;;;0.78;100.00
7662;BME280;30314;48.184;11.510;2022-12-07T04:04:33;95808.63;;;0.79;100.00
7662;BME280;30314;48.184;11.510;2022-12-07T04:07:01;95816.19;;;0.92;100.00
7662;BME280;30314;48.184;11.510;2022-12-07T04:09:29;95807.41;;;0.93;100.00
7662;BME280;30314;48.184;11.510;2022-12-07T04:11:57;95807.84;;;0.90;100.00
7662;BME280;30314;48.184;11.510;2022-12-07T04:14:25;95811.25;;;0.91;100.00
7662;BME280;30314;48.184;11.510;2022-12-07T04:16:55;95807.75;;;0.85;100.00
7662;BME280;30314;48.184;11.510;2022-12-07T04:19:26;95805.81;;;0.80;100.00
7662;BME280;30314;48.184;11.510;2022-12-07T04:21:55;95799.25;;;0.78;100.00
7662;BME280;30314;48.184;11.510;2022-12-07T04:24:22;95816.22;;;0.80;100.00
7662;BME280;30314;48.184;11.510;2022-12-07T04:26:51;95813.84;;;0.79;100.00
7662;BME280;30314;48.184;11.510;2022-12-07T04:29:19;95820.06;;;0.78;100.00
7662;BME280;30314;48.184;11.510;2022-12-07T04:31:47;95812.25;;;0.78;100.00
7662;BME280;30314;48.184;11.510;2022-12-07T04:34:15;95820.28;;;0.88;100.00
7662;BME280;30314;48.184;11.510;2022-12-07T04:36:45;95816.09;;;0.87;100.00
7662;BME280;30314;48.184;11.510;2022-12-07T04:39:19;95811.47;;;0.89;100.00
7662;BME280;30314;48.184;11.510;2022-12-07T04:41:47;95812.47;;;0.88;100.00
7662;BME280;30314;48.184;11.510;2022-12-07T04:44:16;95806.03;;;0.91;100.00
7662;BME280;30314;48.184;11.510;2022-12-07T04:46:45;95809.19;;;0.93;100.00
7662;BME280;30314;48.184;11.510;2022-12-07T04:49:14;95806.13;;;0.96;100.00
7662;BME280;30314;48.184;11.510;2022-12-07T04:51:42;95813.25;;;1.01;100.00
7662;BME280;30314;48.184;11.510;2022-12-07T04:54:12;95788.63;;;0.79;100.00
7662;BME280;30314;48.184;11.510;2022-12-07T04:56:40;95804.91;;;0.87;100.00
7662;BME280;30314;48.184;11.510;2022-12-07T04:59:09;95810.69;;;0.89;100.00
7662;BME280;30314;48.184;11.510;2022-12-07T05:01:37;95782.84;;;0.65;100.00
7662;BME280;30314;48.184;11.510;2022-12-07T05:04:05;95809.88;;;0.88;100.00
7662;BME280;30314;48.184;11.510;2022-12-07T05:06:33;95808.28;;;0.87;100.00
7662;BME280;30314;48.184;11.510;2022-12-07T05:09:02;95815.44;;;0.80;100.00
7662;BME280;30314;48.184;11.510;2022-12-07T05:11:32;95809.88;;;0.88;100.00
7662;BME280;30314;48.184;11.510;2022-12-07T05:14:09;95813.97;;;0.84;100.00
7662;BME280;30314;48.184;11.510;2022-12-07T05:16:38;95815.22;;;0.93;100.00
7662;BME280;30314;48.184;11.510;2022-12-07T05:19:06;95819.38;;;0.82;100.00
7662;BME280;30314;48.184;11.510;2022-12-07T05:21:35;95817.72;;;0.76;100.00
7662;BME280;30314;48.184;11.510;2022-12-07T05:24:03;95817.38;;;0.73;100.00
7662;BME280;30314;48.184;11.510;2022-12-07T05:26:33;95814.31;;;0.76;100.00
7662;BME280;30314;48.184;11.510;2022-12-07T05:29:01;95811.59;;;0.70;100.00
7662;BME280;30314;48.184;11.510;2022-12-07T05:31:29;95814.75;;;0.73;100.00
7662;BME280;30314;48.184;11.510;2022-12-07T05:33:56;95818.59;;;0.70;100.00
7662;BME280;30314;48.184;11.510;2022-12-07T05:36:24;95824.63;;;0.70;100.00
7662;BME280;30314;48.184;11.510;2022-12-07T05:38:55;95812.50;;;0.64;100.00
7662;BME280;30314;48.184;11.510;2022-12-07T05:41:22;95795.56;;;0.62;100.00
7662;BME280;30314;48.184;11.510;2022-12-07T05:44:09;95821.47;;;0.68;100.00
7662;BME280;30314;48.184;11.510;2022-12-07T05:46:36;95816.25;;;0.68;100.00
7662;BME280;30314;48.184;11.510;2022-12-07T05:49:04;95814.44;;;0.81;100.00
7662;BME280;30314;48.184;11.510;2022-12-07T05:51:32;95811.25;;;0.79;100.00
7662;BME280;30314;48.184;11.510;2022-12-07T05:54:00;95810.69;;;0.77;100.00
7662;BME280;30314;48.184;11.510;2022-12-07T05:56:27;95808.91;;;0.53;100.00
7662;BME280;30314;48.184;11.510;2022-12-07T05:58:55;95810.03;;;0.69;100.00
7662;BME280;30314;48.184;11.510;2022-12-07T06:01:42;95807.28;;;0.64;100.00
7662;BME280;30314;48.184;11.510;2022-12-07T06:04:10;95813.16;;;0.83;100.00
7662;BME280;30314;48.184;11.510;2022-12-07T06:06:37;95797.78;;;0.70;100.00
7662;BME280;30314;48.184;11.510;2022-12-07T06:09:05;95818.50;;;0.77;100.00
7662;BME280;30314;48.184;11.510;2022-12-07T06:11:34;95802.34;;;0.63;100.00
7662;BME280;30314;48.184;11.510;2022-12-07T06:14:22;95817.84;;;0.69;100.00
7662;BME280;30314;48.184;11.510;2022-12-07T06:16:51;95819.41;;;0.70;100.00
7662;BME280;30314;48.184;11.510;2022-12-07T06:19:19;95824.84;;;0.69;100.00
7662;BME280;30314;48.184;11.510;2022-12-07T06:21:47;95827.31;;;0.76;100.00
7662;BME280;30314;48.184;11.510;2022-12-07T06:24:16;95819.88;;;0.67;100.00
7662;BME280;30314;48.184;11.510;2022-12-07T06:26:44;95825.06;;;0.67;100.00
7662;BME280;30314;48.184;11.510;2022-12-07T06:29:12;95826.31;;;0.53;100.00
7662;BME280;30314;48.184;11.510;2022-12-07T06:31:41;95833.91;;;0.66;100.00
7662;BME280;30314;48.184;11.510;2022-12-07T06:34:11;95833.91;;;0.66;100.00
7662;BME280;30314;48.184;11.510;2022-12-07T06:36:40;95829.03;;;0.70;100.00
7662;BME280;30314;48.184;11.510;2022-12-07T06:39:08;95831.19;;;0.61;100.00
7662;BME280;30314;48.184;11.510;2022-12-07T06:41:36;95837.50;;;0.65;100.00
7662;BME280;30314;48.184;11.510;2022-12-07T06:44:04;95822.81;;;0.59;100.00
7662;BME280;30314;48.184;11.510;2022-12-07T06:46:32;95830.72;;;0.64;100.00
7662;BME280;30314;48.184;11.510;2022-12-07T06:49:02;95837.84;;;0.69;100.00
7662;BME280;30314;48.184;11.510;2022-12-07T06:51:31;95828.56;;;0.61;100.00
7662;BME280;30314;48.184;11.510;2022-12-07T06:54:01;95828.91;;;0.53;100.00
7662;BME280;30314;48.184;11.510;2022-12-07T06:56:29;95838.41;;;0.59;100.00
7662;BME280;30314;48.184;11.510;2022-12-07T06:58:57;95843.84;;;0.58;100.00
7662;BME280;30314;48.184;11.510;2022-12-07T07:01:25;95846.00;;;0.73;100.00
7662;BME280;30314;48.184;11.510;2022-12-07T07:03:53;95842.47;;;0.79;100.00
7662;BME280;30314;48.184;11.510;2022-12-07T07:06:20;95848.03;;;0.82;100.00
7662;BME280;30314;48.184;11.510;2022-12-07T07:08:50;95843.41;;;0.73;100.00
7662;BME280;30314;48.184;11.510;2022-12-07T07:11:18;95829.91;;;0.52;100.00
7662;BME280;30314;48.184;11.510;2022-12-07T07:13:45;95837.19;;;0.62;100.00
7662;BME280;30314;48.184;11.510;2022-12-07T07:16:13;95844.53;;;0.65;100.00
7662;BME280;30314;48.184;11.510;2022-12-07T07:18:41;95837.38;;;0.72;100.00
7662;BME280;30314;48.184;11.510;2022-12-07T07:21:09;95846.22;;;0.83;100.00
7662;BME280;30314;48.184;11.510;2022-12-07T07:23:37;95827.56;;;0.74;100.00
7662;BME280;30314;48.184;11.510;2022-12-07T07:26:06;95840.00;;;0.84;100.00
7662;BME280;30314;48.184;11.510;2022-12-07T07:28:34;95851.44;;;0.83;100.00
7662;BME280;30314;48.184;11.510;2022-12-07T07:31:02;95828.00;;;0.71;100.00
7662;BME280;30314;48.184;11.510;2022-12-07T07:33:30;95845.97;;;0.84;100.00
7662;BME280;30314;48.184;11.510;2022-12-07T07:35:57;95845.19;;;0.84;100.00
7662;BME280;30314;48.184;11.510;2022-12-07T07:38:25;95851.91;;;0.80;100.00
7662;BME280;30314;48.184;11.510;2022-12-07T07:40:53;95872.59;;;0.75;100.00
7662;BME280;30314;48.184;11.510;2022-12-07T07:43:22;95830.84;;;0.46;100.00
7662;BME280;30314;48.184;11.510;2022-12-07T07:45:50;95852.56;;;0.75;100.00
7662;BME280;30314;48.184;11.510;2022-12-07T07:48:18;95847.00;;;0.83;100.00
7662;BME280;30314;48.184;11.510;2022-12-07T07:50:46;95852.09;;;0.90;100.00
7662;BME280;30314;48.184;11.510;2022-12-07T07:53:14;95850.16;;;0.86;100.00
7662;BME280;30314;48.184;11.510;2022-12-07T07:55:50;95853.53;;;0.98;100.00
7662;BME280;30314;48.184;11.510;2022-12-07T07:58:18;95847.00;;;0.95;100.00
7662;BME280;30314;48.184;11.510;2022-12-07T08:00:47;95858.06;;;1.03;100.00
7662;BME280;30314;48.184;11.510;2022-12-07T08:03:15;95835.00;;;0.94;100.00
7662;BME280;30314;48.184;11.510;2022-12-07T08:05:42;95856.97;;;0.98;100.00
7662;BME280;30314;48.184;11.510;2022-12-07T08:08:10;95853.53;;;1.10;100.00
7662;BME280;30314;48.184;11.510;2022-12-07T08:10:38;95842.22;;;0.92;100.00
7662;BME280;30314;48.184;11.510;2022-12-07T08:13:06;95859.66;;;1.04;100.00
7662;BME280;30314;48.184;11.510;2022-12-07T08:15:42;95862.94;;;1.11;100.00
7662;BME280;30314;48.184;11.510;2022-12-07T08:18:12;95868.72;;;1.13;100.00
7662;BME280;30314;48.184;11.510;2022-12-07T08:20:41;95867.47;;;1.04;100.00
7662;BME280;30314;48.184;11.510;2022-12-07T08:23:10;95872.91;;;1.14;100.00
7662;BME280;30314;48.184;11.510;2022-12-07T08:25:38;95875.16;;;1.10;100.00
7662;BME280;30314;48.184;11.510;2022-12-07T08:28:06;95867.34;;;1.10;100.00
7662;BME280;30314;48.184;11.510;2022-12-07T08:30:34;95873.78;;;1.20;100.00
7662;BME280;30314;48.184;11.510;2022-12-07T08:33:02;95868.47;;;1.26;100.00
7662;BME280;30314;48.184;11.510;2022-12-07T08:35:32;95865.50;;;1.23;100.00
7662;BME280;30314;48.184;11.510;2022-12-07T08:38:00;95871.53;;;1.23;100.00
7662;BME280;30314;48.184;11.510;2022-12-07T08:40:29;95867.34;;;1.22;100.00
7662;BME280;30314;48.184;11.510;2022-12-07T08:42:57;95864.97;;;1.21;100.00
7662;BME280;30314;48.184;11.510;2022-12-07T08:45:25;95870.72;;;1.35;100.00
7662;BME280;30314;48.184;11.510;2022-12-07T08:47:56;95866.97;;;1.31;100.00
7662;BME280;30314;48.184;11.510;2022-12-07T08:50:27;95871.75;;;1.34;100.00
7662;BME280;30314;48.184;11.510;2022-12-07T08:52:57;95872.94;;;1.43;100.00
7662;BME280;30314;48.184;11.510;2022-12-07T08:55:27;95871.34;;;1.42;100.00
7662;BME280;30314;48.184;11.510;2022-12-07T08:57:57;95869.31;;;1.44;100.00
7662;BME280;30314;48.184;11.510;2022-12-07T09:00:25;95872.38;;;1.41;100.00
7662;BME280;30314;48.184;11.510;2022-12-07T09:02:53;95872.38;;;1.41;100.00
7662;BME280;30314;48.184;11.510;2022-12-07T09:05:21;95873.31;;;1.35;100.00
7662;BME280;30314;48.184;11.510;2022-12-07T09:07:51;95871.22;;;1.49;100.00
7662;BME280;30314;48.184;11.510;2022-12-07T09:10:24;95871.78;;;1.51;100.00
7662;BME280;30314;48.184;11.510;2022-12-07T09:12:52;95862.53;;;1.43;100.00
7662;BME280;30314;48.184;11.510;2022-12-07T09:15:20;95811.31;;;1.08;100.00
7662;BME280;30314;48.184;11.510;2022-12-07T09:17:47;95857.44;;;1.36;100.00
7662;BME280;30314;48.184;11.510;2022-12-07T09:20:15;95863.81;;;1.58;100.00
7662;BME280;30314;48.184;11.510;2022-12-07T09:22:45;95863.06;;;1.57;100.00
7662;BME280;30314;48.184;11.510;2022-12-07T09:25:13;95863.66;;;1.76;100.00
7662;BME280;30314;48.184;11.510;2022-12-07T09:27:42;95868.31;;;1.74;100.00
7662;BME280;30314;48.184;11.510;2022-12-07T09:30:10;95871.97;;;1.73;100.00
7662;BME280;30314;48.184;11.510;2022-12-07T09:32:38;95865.38;;;1.71;100.00
7662;BME280;30314;48.184;11.510;2022-12-07T09:35:06;95869.50;;;1.66;100.00
7662;BME280;30314;48.184;11.510;2022-12-07T09:37:34;95873.75;;;1.73;100.00
7662;BME280;30314;48.184;11.510;2022-12-07T09:40:03;95872.38;;;1.82;100.00
7662;BME280;30314;48.184;11.510;2022-12-07T09:42:34;95863.75;;;1.81;100.00
7662;BME280;30314;48.184;11.510;2022-12-07T09:45:09;95864.41;;;1.89;100.00
7662;BME280;30314;48.184;11.510;2022-12-07T09:47:39;95857.75;;;1.98;100.00
7662;BME280;30314;48.184;11.510;2022-12-07T09:50:13;95857.00;;;1.97;100.00
7662;BME280;30314;48.184;11.510;2022-12-07T09:52:42;95854.31;;;2.09;100.00
7662;BME280;30314;48.184;11.510;2022-12-07T09:55:13;95857.25;;;2.13;100.00
7662;BME280;30314;48.184;11.510;2022-12-07T09:57:41;95843.81;;;2.04;100.00
7662;BME280;30314;48.184;11.510;2022-12-07T10:00:14;95842.28;;;2.08;100.00
7662;BME280;30314;48.184;11.510;2022-12-07T10:02:44;95852.56;;;2.15;100.00
7662;BME280;30314;48.184;11.510;2022-12-07T10:05:14;95851.94;;;2.08;100.00
7662;BME280;30314;48.184;11.510;2022-12-07T10:07:50;95830.91;;;1.97;100.00
7662;BME280;30314;48.184;11.510;2022-12-07T10:10:22;95827.19;;;2.10;100.00
7662;BME280;30314;48.184;11.510;2022-12-07T10:12:57;95840.97;;;2.23;100.00
7662;BME280;30314;48.184;11.510;2022-12-07T10:15:42;95842.16;;;2.32;100.00
7662;BME280;30314;48.184;11.510;2022-12-07T10:18:19;95846.28;;;2.28;100.00
7662;BME280;30314;48.184;11.510;2022-12-07T10:20:47;95846.44;;;2.21;100.00
7662;BME280;30314;48.184;11.510;2022-12-07T10:23:16;95837.63;;;2.10;100.00
7662;BME280;30314;48.184;11.510;2022-12-07T10:25:45;95832.19;;;2.12;100.00
7662;BME280;30314;48.184;11.510;2022-12-07T10:28:15;95784.91;;;1.91;100.00
7662;BME280;30314;48.184;11.510;2022-12-07T10:30:54;95847.44;;;2.37;100.00
7662;BME280;30314;48.184;11.510;2022-12-07T10:33:30;95842.81;;;2.39;100.00
7662;BME280;30314;48.184;11.510;2022-12-07T10:35:59;95844.28;;;2.35;100.00
7662;BME280;30314;48.184;11.510;2022-12-07T10:38:28;95833.94;;;2.41;100.00
7662;BME280;30314;48.184;11.510;2022-12-07T10:41:06;95837.97;;;2.48;100.00
7662;BME280;30314;48.184;11.510;2022-12-07T10:43:34;95835.75;;;2.40;100.00
7662;BME280;30314;48.184;11.510;2022-12-07T10:46:31;95806.66;;;2.31;100.00
7662;BME280;30314;48.184;11.510;2022-12-07T10:49:12;95828.31;;;2.49;100.00
7662;BME280;30314;48.184;11.510;2022-12-07T10:51:50;95742.97;;;1.93;100.00
7662;BME280;30314;48.184;11.510;2022-12-07T10:54:30;95822.06;;;2.50;100.00
7662;BME280;30314;48.184;11.510;2022-12-07T10:57:16;95780.03;;;2.29;100.00
7662;BME280;30314;48.184;11.510;2022-12-07T10:59:59;95812.56;;;2.61;100.00
7662;BME280;30314;48.184;11.510;2022-12-07T11:02:42;95812.84;;;2.64;100.00
7662;BME280;30314;48.184;11.510;2022-12-07T11:05:18;95815.56;;;2.70;100.00
7662;BME280;30314;48.184;11.510;2022-12-07T11:07:59;95808.59;;;2.75;100.00
7662;BME280;30314;48.184;11.510;2022-12-07T11:10:32;95807.59;;;2.81;100.00
7662;BME280;30314;48.184;11.510;2022-12-07T11:13:21;95808.59;;;2.98;100.00
7662;BME280;30314;48.184;11.510;2022-12-07T11:18:57;95758.34;;;2.90;100.00
7662;BME280;30314;48.184;11.510;2022-12-07T11:21:31;95781.25;;;3.28;100.00
7662;BME280;30314;48.184;11.510;2022-12-07T11:24:06;95797.03;;;3.38;100.00
7662;BME280;30314;48.184;11.510;2022-12-07T11:26:57;95796.53;;;3.41;100.00
7662;BME280;30314;48.184;11.510;2022-12-07T11:29:44;95779.44;;;3.28;100.00
7662;BME280;30314;48.184;11.510;2022-12-07T11:32:18;95785.91;;;3.48;100.00
7662;BME280;30314;48.184;11.510;2022-12-07T11:34:55;95784.19;;;3.59;100.00
7662;BME280;30314;48.184;11.510;2022-12-07T11:37:30;95783.53;;;3.74;100.00
7662;BME280;30314;48.184;11.510;2022-12-07T11:40:15;95782.13;;;3.61;97.37
7662;BME280;30314;48.184;11.510;2022-12-07T11:42:49;95783.72;;;3.67;100.00
7662;BME280;30314;48.184;11.510;2022-12-07T11:45:21;95766.56;;;3.49;98.70
7662;BME280;30314;48.184;11.510;2022-12-07T11:47:54;95778.97;;;3.59;99.34
7662;BME280;30314;48.184;11.510;2022-12-07T11:50:30;95763.31;;;3.64;100.00
7662;BME280;30314;48.184;11.510;2022-12-07T11:53:03;95739.00;;;3.36;100.00
7662;BME280;30314;48.184;11.510;2022-12-07T11:55:42;95760.84;;;3.24;100.00
7662;BME280;30314;48.184;11.510;2022-12-07T11:58:35;95756.56;;;3.18;97.61
7662;BME280;30314;48.184;11.510;2022-12-07T12:01:14;95758.38;;;3.13;100.00
7662;BME280;30314;48.184;11.510;2022-12-07T12:03:47;95757.03;;;3.10;100.00
7662;BME280;30314;48.184;11.510;2022-12-07T12:06:20;95751.19;;;3.03;100.00
7662;BME280;30314;48.184;11.510;2022-12-07T12:08:53;95755.31;;;2.99;100.00
7662;BME280;30314;48.184;11.510;2022-12-07T12:12:01;95746.16;;;2.96;98.25
7662;BME280;30314;48.184;11.510;2022-12-07T12:15:03;95746.78;;;2.81;100.00
7662;BME280;30314;48.184;11.510;2022-12-07T12:17:50;95742.88;;;2.84;100.00
7662;BME280;30314;48.184;11.510;2022-12-07T12:20:25;95740.06;;;2.90;100.00
7662;BME280;30314;48.184;11.510;2022-12-07T12:22:58;95739.97;;;2.80;100.00
7662;BME280;30314;48.184;11.510;2022-12-07T12:25:29;95735.69;;;2.51;100.00
7662;BME280;30314;48.184;11.510;2022-12-07T12:27:59;95737.66;;;2.84;100.00
7662;BME280;30314;48.184;11.510;2022-12-07T12:30:33;95733.63;;;2.76;100.00
7662;BME280;30314;48.184;11.510;2022-12-07T12:33:04;95731.03;;;2.76;100.00
7662;BME280;30314;48.184;11.510;2022-12-07T12:35:34;95690.06;;;2.54;100.00
7662;BME280;30314;48.184;11.510;2022-12-07T12:38:29;95723.72;;;2.78;100.00
7662;BME280;30314;48.184;11.510;2022-12-07T12:40:58;95733.09;;;2.74;100.00
7662;BME280;30314;48.184;11.510;2022-12-07T12:43:43;95729.63;;;2.90;97.52
7662;BME280;30314;48.184;11.510;2022-12-07T12:46:38;95730.13;;;2.87;97.72
7662;BME280;30314;48.184;11.510;2022-12-07T12:49:37;95727.47;;;2.82;100.00
7662;BME280;30314;48.184;11.510;2022-12-07T12:55:27;95733.72;;;2.81;100.00
7662;BME280;30314;48.184;11.510;2022-12-07T12:58:32;95719.50;;;2.72;100.00
7662;BME280;30314;48.184;11.510;2022-12-07T13:01:33;95723.56;;;2.85;100.00
7662;BME280;30314;48.184;11.510;2022-12-07T13:04:49;95720.22;;;2.89;100.00
7662;BME280;30314;48.184;11.510;2022-12-07T13:10:34;95716.56;;;2.90;100.00
7662;BME280;30314;48.184;11.510;2022-12-07T13:13:04;95705.41;;;2.73;100.00
7662;BME280;30314;48.184;11.510;2022-12-07T13:15:52;95717.38;;;2.91;100.00
7662;BME280;30314;48.184;11.510;2022-12-07T13:18:25;95707.69;;;2.91;100.00
7662;BME280;30314;48.184;11.510;2022-12-07T13:20:55;95708.44;;;3.09;99.67
7662;BME280;30314;48.184;11.510;2022-12-07T13:23:26;95707.88;;;3.07;100.00
7662;BME280;30314;48.184;11.510;2022-12-07T13:26:01;95700.97;;;3.23;100.00
7662;BME280;30314;48.184;11.510;2022-12-07T13:28:36;95687.66;;;2.97;98.68
7662;BME280;30314;48.184;11.510;2022-12-07T13:31:14;95697.25;;;2.91;100.00
7662;BME280;30314;48.184;11.510;2022-12-07T13:33:45;95707.78;;;2.96;100.00
7662;BME280;30314;48.184;11.510;2022-12-07T13:36:19;95712.91;;;2.91;100.00